aviador You're here:

LZPP Decoded Metar

PIESTANY in SLOVAKIA
Report Time2018-01-20 05:00:00
UTC Time2018-01-20 05:14:10
Flight Rules ifr IFR
WindVRB at 01 kt
Visibility4000 m
Phenomena:Mist
Clouds:Few 002 Hf
CeilingNone
Temp-4°C (ISA -18)
Dew Point-4°C (100% RH)
AAT-6.9°C
QNH1012 hPa
Density Alt-1,585 ft
Elevation528 ft
Report Wrong Elevation
Raw Report
LZPP 200500Z VRB01KT 4000 BR FEW002 M04/M04 Q1012=

Extra information for LZPP:More info

Metar Taf Metar & Taf Last 4 Metars F.Rules Stats Wind Profile Meteogram Temp Stats Airport Information Weather charts Add Link Nearby VenuesMetar ALERT Operation Metar Decoded Social comments